createdAt,value
2022-11-12T00:00:38.622Z,6.95
2022-11-12T00:03:40.532Z,6.63
2022-11-12T00:06:42.453Z,7.82
2022-11-12T00:09:44.354Z,5.22
2022-11-12T00:12:47.641Z,4.97
2022-11-12T00:15:49.609Z,4.78
2022-11-12T00:18:51.464Z,4.35
2022-11-12T00:21:53.337Z,7.47
2022-11-12T00:24:55.239Z,4.35
2022-11-12T00:28:02.942Z,4.00
2022-11-12T00:31:09.493Z,4.28
2022-11-12T00:34:11.349Z,4.68
2022-11-12T00:37:13.252Z,3.72
2022-11-12T00:40:15.864Z,4.22
2022-11-12T00:43:19.093Z,5.05
2022-11-12T00:46:20.957Z,3.15
2022-11-12T00:49:23.071Z,3.10
2022-11-12T00:52:25.003Z,4.13
2022-11-12T00:55:26.913Z,3.55
2022-11-12T00:58:30.513Z,3.80
2022-11-12T01:01:32.611Z,3.20
2022-11-12T01:04:34.777Z,2.50
2022-11-12T01:07:36.903Z,2.70
2022-11-12T01:10:38.834Z,2.85
2022-11-12T01:13:44.594Z,4.00
2022-11-12T01:16:46.634Z,3.22
2022-11-12T01:19:48.584Z,2.47
2022-11-12T01:22:50.565Z,2.47
2022-11-12T01:25:52.529Z,3.33
2022-11-12T01:28:56.487Z,3.65
2022-11-12T01:31:58.648Z,2.05
2022-11-12T01:35:00.545Z,2.58
2022-11-12T01:38:02.489Z,3.92
2022-11-12T01:41:07.882Z,3.72
2022-11-12T01:44:17.368Z,3.53
2022-11-12T01:47:22.814Z,2.60
2022-11-12T01:50:28.172Z,1.98
2022-11-12T01:53:34.134Z,2.88
2022-11-12T01:56:40.522Z,2.10
2022-11-12T01:59:49.884Z,1.55
2022-11-12T02:02:55.414Z,3.58
2022-11-12T02:06:01.234Z,2.15
2022-11-12T02:09:04.302Z,2.83
2022-11-12T02:12:07.585Z,11.10
2022-11-12T02:15:11.319Z,4.93
2022-11-12T02:18:13.445Z,2.08
2022-11-12T02:21:20.353Z,3.22
2022-11-12T02:27:34.726Z,2.92
2022-11-12T02:30:42.221Z,3.97
2022-11-12T02:33:44.089Z,1.67
2022-11-12T02:36:47.465Z,2.65
2022-11-12T02:39:49.330Z,1.95
2022-11-12T02:42:51.244Z,2.42
2022-11-12T02:45:53.200Z,3.28
2022-11-12T02:48:55.099Z,3.70
2022-11-12T02:51:58.451Z,2.03
2022-11-12T02:55:00.803Z,2.15
2022-11-12T02:58:02.671Z,2.80
2022-11-12T03:01:04.956Z,1.92
2022-11-12T03:04:07.007Z,3.35
2022-11-12T03:07:10.324Z,3.17
2022-11-12T03:10:12.232Z,3.08
2022-11-12T03:13:14.120Z,2.35
2022-11-12T03:16:16.037Z,1.98
2022-11-12T03:19:17.938Z,1.67
2022-11-12T03:22:21.188Z,1.65
2022-11-12T03:25:23.492Z,3.80
2022-11-12T03:28:25.648Z,1.88
2022-11-12T03:31:27.829Z,2.95
2022-11-12T03:34:29.672Z,2.00
2022-11-12T03:37:33.035Z,2.42
2022-11-12T03:40:35.941Z,1.63
2022-11-12T03:43:37.835Z,1.65
2022-11-12T03:46:43.990Z,3.70
2022-11-12T03:49:46.307Z,2.80
2022-11-12T03:52:52.041Z,3.83
2022-11-12T03:55:53.941Z,2.20
2022-11-12T03:58:55.758Z,2.20
2022-11-12T04:01:57.744Z,2.25
2022-11-12T04:04:59.626Z,5.05
2022-11-12T04:08:04.766Z,2.13
2022-11-12T04:11:08.434Z,1.38
2022-11-12T04:14:10.296Z,1.65
2022-11-12T04:17:12.201Z,2.10
2022-11-12T04:20:14.289Z,2.30
2022-11-12T04:23:17.591Z,2.13
2022-11-12T04:26:19.438Z,1.90
2022-11-12T04:29:21.344Z,2.15
2022-11-12T04:32:23.683Z,2.85
2022-11-12T04:35:27.055Z,3.70
2022-11-12T04:38:30.416Z,5.15
2022-11-12T04:41:32.423Z,3.75
2022-11-12T04:44:34.348Z,4.68
2022-11-12T04:47:37.919Z,4.13
2022-11-12T04:50:41.010Z,2.88
2022-11-12T04:53:44.292Z,4.05
2022-11-12T04:56:46.166Z,3.58
2022-11-12T04:59:48.164Z,3.00
2022-11-12T05:02:50.421Z,2.30
2022-11-12T05:05:52.328Z,2.15
2022-11-12T05:08:55.970Z,2.47
2022-11-12T05:11:58.054Z,2.92
2022-11-12T05:14:59.960Z,2.10
2022-11-12T05:18:01.854Z,2.63
2022-11-12T05:21:04.008Z,2.08
2022-11-12T05:24:07.755Z,1.83
2022-11-12T05:27:15.045Z,3.03
2022-11-12T05:30:17.077Z,3.45
2022-11-12T05:33:18.968Z,2.30
2022-11-12T05:36:20.958Z,2.10
2022-11-12T05:39:24.746Z,2.35
2022-11-12T05:42:26.661Z,4.38
2022-11-12T05:45:28.489Z,4.05
2022-11-12T05:48:31.574Z,2.00
2022-11-12T05:51:33.699Z,1.83
2022-11-12T05:54:37.025Z,12.77
2022-11-12T05:57:38.901Z,12.52
2022-11-12T06:00:40.922Z,57.00
2022-11-12T06:03:42.985Z,45.70
2022-11-12T06:06:45.255Z,28.95
2022-11-12T06:09:48.606Z,35.03
2022-11-12T06:12:50.622Z,41.78
2022-11-12T06:15:52.931Z,17.25
2022-11-12T06:18:54.916Z,21.23
2022-11-12T06:21:56.832Z,8.40
2022-11-12T06:25:00.220Z,4.50
2022-11-12T06:28:02.227Z,8.45
2022-11-12T06:31:04.409Z,14.30
2022-11-12T06:34:06.302Z,15.77
2022-11-12T06:37:08.101Z,8.23
2022-11-12T06:40:12.114Z,5.20
2022-11-12T06:43:13.985Z,7.15
2022-11-12T06:46:17.302Z,7.82
2022-11-12T06:49:19.238Z,4.65
2022-11-12T06:52:21.144Z,8.13
2022-11-12T06:55:24.396Z,17.73
2022-11-12T06:58:26.548Z,7.50
2022-11-12T07:01:28.559Z,6.72
2022-11-12T07:04:30.588Z,5.82
2022-11-12T07:07:32.530Z,6.43
2022-11-12T07:10:35.845Z,4.30
2022-11-12T07:13:38.137Z,2.70
2022-11-12T07:16:40.402Z,4.50
2022-11-12T07:19:42.378Z,3.53
2022-11-12T07:22:44.244Z,3.70
2022-11-12T07:25:47.535Z,3.13
2022-11-12T07:28:50.462Z,3.17
2022-11-12T07:31:52.297Z,1.73
2022-11-12T07:34:54.203Z,2.95
2022-11-12T07:37:59.662Z,8.20
2022-11-12T07:41:04.817Z,3.97
2022-11-12T07:44:06.819Z,5.82
2022-11-12T07:47:08.724Z,4.75
2022-11-12T07:50:10.882Z,7.30
2022-11-12T07:53:12.864Z,6.90
2022-11-12T07:56:18.049Z,9.43
2022-11-12T07:59:20.059Z,5.07
2022-11-12T08:02:21.922Z,11.25
2022-11-12T08:05:23.852Z,10.07
2022-11-12T08:08:25.989Z,9.35
2022-11-12T08:11:29.537Z,9.68
2022-11-12T08:14:31.453Z,11.23
2022-11-12T08:17:37.764Z,12.07
2022-11-12T08:20:39.688Z,9.32
2022-11-12T08:23:42.470Z,9.20
2022-11-12T08:26:45.741Z,4.47
2022-11-12T08:29:47.585Z,5.63
2022-11-12T08:32:56.106Z,5.22
2022-11-12T08:35:58.346Z,5.00
2022-11-12T08:39:00.454Z,8.35
2022-11-12T08:42:03.972Z,8.77
2022-11-12T08:45:06.970Z,9.00
2022-11-12T08:48:11.533Z,7.85
2022-11-12T08:51:13.463Z,6.40
2022-11-12T08:54:15.378Z,6.38
2022-11-12T08:57:18.807Z,7.63
2022-11-12T09:00:20.734Z,10.00
2022-11-12T09:03:25.330Z,6.50
2022-11-12T09:06:27.251Z,7.22
2022-11-12T09:09:29.113Z,10.00
2022-11-12T09:12:32.420Z,8.80
2022-11-12T09:15:38.574Z,6.57
2022-11-12T09:18:40.819Z,9.52
2022-11-12T09:21:43.205Z,9.40
2022-11-12T09:24:46.500Z,8.13
2022-11-12T09:27:49.753Z,7.80
2022-11-12T09:30:52.887Z,13.00
2022-11-12T09:33:54.795Z,5.93
2022-11-12T09:36:56.696Z,5.47
2022-11-12T09:39:58.596Z,6.30
2022-11-12T09:43:11.513Z,6.90
2022-11-12T09:46:33.552Z,5.07
2022-11-12T09:49:40.792Z,3.35
2022-11-12T09:52:46.143Z,3.22
2022-11-12T09:55:50.230Z,3.47
2022-11-12T09:58:54.058Z,3.15
2022-11-12T10:02:06.295Z,4.13
2022-11-12T10:05:21.693Z,6.18
2022-11-12T10:08:38.126Z,4.15
2022-11-12T10:12:04.567Z,4.93
2022-11-12T10:15:36.197Z,8.98
2022-11-12T10:18:51.055Z,5.82
2022-11-12T10:21:59.892Z,4.65
2022-11-12T10:25:13.997Z,5.00
2022-11-12T10:28:30.194Z,5.55
2022-11-12T10:31:36.640Z,5.17
2022-11-12T10:34:38.564Z,3.33
2022-11-12T10:37:47.626Z,4.65
2022-11-12T10:40:49.578Z,4.30
2022-11-12T10:43:57.252Z,4.70
2022-11-12T10:50:31.684Z,4.72
2022-11-12T10:53:35.771Z,4.25
2022-11-12T10:56:37.686Z,3.63
2022-11-12T10:59:39.554Z,4.53
2022-11-12T11:02:47.669Z,5.15
2022-11-12T11:05:54.976Z,3.88
2022-11-12T11:09:14.417Z,6.68
2022-11-12T11:12:23.762Z,6.55
2022-11-12T11:18:28.173Z,4.03
2022-11-12T11:21:52.666Z,2.80
2022-11-12T11:25:11.797Z,3.00
2022-11-12T11:28:22.019Z,5.07
2022-11-12T11:31:36.037Z,13.48
2022-11-12T11:34:46.302Z,7.45
2022-11-12T11:38:02.582Z,3.63
2022-11-12T11:41:25.361Z,2.80
2022-11-12T11:44:36.397Z,2.80
2022-11-12T11:48:00.435Z,4.50
2022-11-12T11:51:10.620Z,4.00
2022-11-12T11:54:35.635Z,3.13
2022-11-12T11:57:45.570Z,2.60
2022-11-12T12:00:52.212Z,3.00
2022-11-12T12:04:14.960Z,3.42
2022-11-12T12:07:27.267Z,2.60
2022-11-12T12:11:06.805Z,3.13
2022-11-12T12:14:31.097Z,3.47
2022-11-12T12:17:47.761Z,5.60
2022-11-12T12:20:58.645Z,2.65
2022-11-12T12:24:03.275Z,3.20
2022-11-12T12:27:11.506Z,3.00
2022-11-12T12:30:19.417Z,5.80
2022-11-12T12:33:29.792Z,5.90
2022-11-12T12:36:36.356Z,5.13
2022-11-12T12:39:48.376Z,3.95
2022-11-12T12:42:56.572Z,6.53
2022-11-12T12:45:58.501Z,6.82
2022-11-12T12:49:01.699Z,3.90
2022-11-12T12:52:03.605Z,2.85
2022-11-12T12:55:06.587Z,14.10
2022-11-12T12:58:26.386Z,3.85
2022-11-12T13:04:54.342Z,4.00
2022-11-12T13:08:00.047Z,3.97
2022-11-12T13:11:01.951Z,4.43
2022-11-12T13:14:54.083Z,4.43
2022-11-12T13:17:56.257Z,4.07
2022-11-12T13:21:09.712Z,6.72
2022-11-12T13:24:13.983Z,4.63
2022-11-12T13:27:59.905Z,7.00
2022-11-12T13:31:04.529Z,7.38
2022-11-12T13:34:13.744Z,4.18
2022-11-12T13:40:33.111Z,5.57
2022-11-12T13:43:39.164Z,2.35
2022-11-12T13:46:44.216Z,3.92
2022-11-12T13:49:47.984Z,4.10
2022-11-12T13:52:50.521Z,3.13
2022-11-12T13:55:54.096Z,9.77
2022-11-12T13:58:56.025Z,5.45
2022-11-12T14:02:04.764Z,9.18
2022-11-12T14:05:14.441Z,3.60
2022-11-12T14:08:39.753Z,5.70
2022-11-12T14:11:54.796Z,5.60
2022-11-12T14:15:18.028Z,3.33
2022-11-12T14:18:31.377Z,3.92
2022-11-12T14:21:33.330Z,2.90
2022-11-12T14:24:35.351Z,3.65
2022-11-12T14:27:37.258Z,6.18
2022-11-12T14:30:44.636Z,6.35
2022-11-12T14:33:47.877Z,9.15
2022-11-12T14:36:50.000Z,9.00
2022-11-12T14:39:51.966Z,7.10
2022-11-12T14:42:54.733Z,12.23
2022-11-12T14:45:58.467Z,8.25
2022-11-12T14:49:04.371Z,8.32
2022-11-12T14:52:10.621Z,9.32
2022-11-12T14:55:17.399Z,7.85
2022-11-12T14:58:20.816Z,8.07
2022-11-12T15:04:54.523Z,6.25
2022-11-12T15:08:00.243Z,11.10
2022-11-12T15:11:26.983Z,10.63
2022-11-12T15:14:29.531Z,8.57
2022-11-12T15:17:33.195Z,9.27
2022-11-12T15:20:36.478Z,7.93
2022-11-12T15:23:46.988Z,10.85
2022-11-12T15:26:49.441Z,7.63
2022-11-12T15:30:08.521Z,7.63
2022-11-12T15:33:21.122Z,10.13
2022-11-12T15:36:24.720Z,7.78
2022-11-12T15:39:27.784Z,7.32
2022-11-12T15:42:38.504Z,7.57
2022-11-12T15:45:40.431Z,7.60
2022-11-12T15:48:42.303Z,8.07
2022-11-12T15:51:45.679Z,8.77
2022-11-12T15:54:47.778Z,7.80
2022-11-12T15:57:52.040Z,8.45
2022-11-12T16:00:54.171Z,6.75
2022-11-12T16:03:56.161Z,4.85
2022-11-12T16:06:59.603Z,8.35
2022-11-12T16:10:01.575Z,6.47
2022-11-12T16:13:05.267Z,7.30
2022-11-12T16:16:07.212Z,6.63
2022-11-12T16:19:13.467Z,4.53
2022-11-12T16:22:16.738Z,4.72
2022-11-12T16:25:19.208Z,3.83
2022-11-12T16:28:21.144Z,9.90
2022-11-12T16:31:23.198Z,9.27
2022-11-12T16:34:25.155Z,10.95
2022-11-12T16:37:28.388Z,13.40
2022-11-12T16:40:31.332Z,18.60
2022-11-12T16:43:33.356Z,13.10
2022-11-12T16:46:37.488Z,8.95
2022-11-12T16:49:39.426Z,17.55
2022-11-12T16:52:42.737Z,21.27
2022-11-12T16:55:45.098Z,7.93
2022-11-12T16:58:47.836Z,7.63
2022-11-12T17:01:49.801Z,7.95
2022-11-12T17:04:52.084Z,6.07
2022-11-12T17:07:58.174Z,5.18
2022-11-12T17:11:06.975Z,8.30
2022-11-12T17:14:09.127Z,3.20
2022-11-12T17:17:10.968Z,8.40
2022-11-12T17:20:12.918Z,8.35
2022-11-12T17:23:16.624Z,9.43
2022-11-12T17:26:20.096Z,8.05
2022-11-12T17:29:22.105Z,11.52
2022-11-12T17:32:24.071Z,12.52
2022-11-12T17:35:27.576Z,9.57
2022-11-12T17:38:31.239Z,13.45
2022-11-12T17:41:33.204Z,14.32
2022-11-12T17:44:36.886Z,20.15
2022-11-12T17:47:40.648Z,12.60
2022-11-12T17:50:43.254Z,12.93
2022-11-12T17:53:47.653Z,11.10
2022-11-12T17:56:49.786Z,11.82
2022-11-12T17:59:54.937Z,11.10
2022-11-12T18:02:59.004Z,7.70
2022-11-12T18:06:01.149Z,5.40
2022-11-12T18:09:06.984Z,3.53
2022-11-12T18:12:09.890Z,7.47
2022-11-12T18:15:12.930Z,4.78
2022-11-12T18:18:15.146Z,15.55
2022-11-12T18:21:18.296Z,6.55
2022-11-12T18:24:21.891Z,6.78
2022-11-12T18:27:24.059Z,10.82
2022-11-12T18:30:27.179Z,8.38
2022-11-12T18:33:30.401Z,7.60
2022-11-12T18:36:33.305Z,9.85
2022-11-12T18:39:37.403Z,5.95
2022-11-12T18:42:39.751Z,7.28
2022-11-12T18:45:42.024Z,5.25
2022-11-12T18:48:44.939Z,8.73
2022-11-12T18:51:47.175Z,16.10
2022-11-12T18:54:52.009Z,7.70
2022-11-12T18:57:54.570Z,8.35
2022-11-12T19:01:02.575Z,8.20
2022-11-12T19:04:05.229Z,4.93
2022-11-12T19:07:07.816Z,7.57
2022-11-12T19:10:14.959Z,6.68
2022-11-12T19:13:18.091Z,6.53
2022-11-12T19:16:22.338Z,7.82
2022-11-12T19:19:24.905Z,9.13
2022-11-12T19:22:30.514Z,8.10
2022-11-12T19:25:36.318Z,7.28
2022-11-12T19:28:39.614Z,9.85
2022-11-12T19:31:42.099Z,9.63
2022-11-12T19:34:45.797Z,8.80
2022-11-12T19:37:48.208Z,11.77
2022-11-12T19:40:52.030Z,13.25
2022-11-12T19:43:54.424Z,11.10
2022-11-12T19:46:57.266Z,10.43
2022-11-12T19:50:02.481Z,9.07
2022-11-12T19:53:05.360Z,9.43
2022-11-12T19:56:11.105Z,6.50
2022-11-12T19:59:13.408Z,7.18
2022-11-12T20:02:16.030Z,10.25
2022-11-12T20:05:18.382Z,9.95
2022-11-12T20:08:23.935Z,9.18
2022-11-12T20:11:27.993Z,9.13
2022-11-12T20:14:30.618Z,9.25
2022-11-12T20:17:33.516Z,8.93
2022-11-12T20:20:35.955Z,6.82
2022-11-12T20:23:39.252Z,16.20
2022-11-12T20:26:42.661Z,11.50
2022-11-12T20:29:44.774Z,8.18
2022-11-12T20:32:46.709Z,13.05
2022-11-12T20:35:50.359Z,15.50
2022-11-12T20:38:53.011Z,11.32
2022-11-12T20:41:56.434Z,9.80
2022-11-12T20:44:58.907Z,12.32
2022-11-12T20:48:01.145Z,10.18
2022-11-12T20:51:22.792Z,9.27
2022-11-12T20:54:25.930Z,10.60
2022-11-12T20:57:29.968Z,11.90
2022-11-12T21:00:31.917Z,12.35
2022-11-12T21:03:35.722Z,9.05
2022-11-12T21:06:38.285Z,10.45
2022-11-12T21:09:40.412Z,11.05
2022-11-12T21:12:43.655Z,9.73
2022-11-12T21:15:45.659Z,8.20
2022-11-12T21:18:47.903Z,8.48
2022-11-12T21:21:50.015Z,6.78
2022-11-12T21:24:52.165Z,7.22
2022-11-12T21:27:55.501Z,7.22
2022-11-12T21:31:02.734Z,6.22
2022-11-12T21:34:05.247Z,6.05
2022-11-12T21:37:07.246Z,6.80
2022-11-12T21:40:10.090Z,6.88
2022-11-12T21:43:13.489Z,6.95
2022-11-12T21:46:17.320Z,6.00
2022-11-12T21:49:19.206Z,6.47
2022-11-12T21:52:21.292Z,5.72
2022-11-12T21:55:23.168Z,8.75
2022-11-12T21:58:28.354Z,6.20
2022-11-12T22:01:32.751Z,5.80
2022-11-12T22:04:34.737Z,6.15
2022-11-12T22:07:36.631Z,6.70
2022-11-12T22:10:38.569Z,5.75
2022-11-12T22:13:42.584Z,9.20
2022-11-12T22:16:44.435Z,8.18
2022-11-12T22:19:46.329Z,8.55
2022-11-12T22:22:48.250Z,5.13
2022-11-12T22:25:50.223Z,7.15
2022-11-12T22:28:54.238Z,8.13
2022-11-12T22:31:56.145Z,6.40
2022-11-12T22:34:57.958Z,6.43
2022-11-12T22:37:59.796Z,7.10
2022-11-12T22:41:03.343Z,7.60
2022-11-12T22:44:06.832Z,6.88
2022-11-12T22:47:08.709Z,7.63
2022-11-12T22:50:10.644Z,7.72
2022-11-12T22:53:12.487Z,7.78
2022-11-12T22:56:16.163Z,8.18
2022-11-12T22:59:19.458Z,8.43
2022-11-12T23:02:21.336Z,5.68
2022-11-12T23:05:24.429Z,9.55
2022-11-12T23:08:31.731Z,8.75
2022-11-12T23:11:36.909Z,5.63
2022-11-12T23:14:40.161Z,7.30
2022-11-12T23:17:42.122Z,7.53
2022-11-12T23:20:44.050Z,7.93
2022-11-12T23:23:46.132Z,8.63
2022-11-12T23:26:48.074Z,8.82
2022-11-12T23:29:51.431Z,9.38
2022-11-12T23:32:53.468Z,11.90
2022-11-12T23:36:02.892Z,9.35
2022-11-12T23:39:04.833Z,10.27
2022-11-12T23:42:06.828Z,9.88
2022-11-12T23:45:11.004Z,7.82
2022-11-12T23:48:12.893Z,8.73
2022-11-12T23:51:16.807Z,8.55
2022-11-12T23:54:18.713Z,8.63
2022-11-12T23:57:20.641Z,7.25
